Marysville, Ohio
Current Conditions -  °F | °C
As of 12:33 AM on Monday 20 Oct 2014 (Local Time) from KMRT Reporting Station
Clear Clear  
Wind Chill:   Ceiling: Unl
Heat Index:   Visibility: 10mi
Dew Point:   Wind: 5mph
Humidity: 75%   Direction: 220°SW
Pressure: 30.03"   Gusts: NA
Location:  40.24°N, 83.37°W
Report Text: KMRT 200433Z AUTO 22004KT 10SM CLR 06/01 A3003 RMK AO2 T00550013
Loading
Personal Weather Stations






























Interactive Weather Map
Tropical Storm Tracking
New forecast layout! Learn more

10-Day Weather Forecast

Advertisements
Track Severe Weather on mobile